Ast Sunshine — 3FEP3 — position and weather

sailwx.info

Track history (hours):
 
Tides and Currents Weather Stations Pressure Air Temp Water Temp Dewpoint Dewpoint Depression Visibility Wind Speed Wind Dir Waves Ship Positions

Ast Sunshine

Last reported at 2018-May-20 11:30 UTC. Time now 2018-May-20 11:47 UTC.
Position N 01°15' E 103°56'.

Length 274 m; draft 8.9 m.

Type: Tanker. MMSI: 356923000.

Date/timePositionNaut miles runAvg speedWind from/ knotsBaromVisibWave heightAir tempDewpointWater temp
2018-May-20 11:30N 01°15' E 103°56'0 0.0
2018-May-20 11:00N 01°15' E 103°56'0 0.1
2018-May-20 10:24N 01°15' E 103°56'0 0.1
2018-May-20 09:57N 01°15' E 103°56'0 0.2
2018-May-20 09:30N 01°15' E 103°56'0 0.2
2018-May-20 08:59N 01°15' E 103°56'0 0.2
2018-May-20 08:30N 01°15' E 103°56'0 0.1
2018-May-20 07:50N 01°15' E 103°56'0 0.0
2018-May-20 07:29N 01°15' E 103°56'0 0.1
2018-May-20 07:00N 01°15' E 103°56'0 0.1
2018-May-20 06:29N 01°15' E 103°56'0 0.0
2018-May-20 05:53N 01°15' E 103°56'0 0.2
2018-May-20 05:30N 01°15' E 103°56'0 0.1
2018-May-20 04:51N 01°15' E 103°56'0 0.0
2018-May-20 04:30N 01°15' E 103°56'0 0.1
2018-May-20 03:51N 01°15' E 103°56'0 0.0
2018-May-20 03:26N 01°15' E 103°56'0 0.0
2018-May-20 03:00N 01°15' E 103°56'0 0.0
2018-May-20 02:27N 01°15' E 103°56'0 0.0
2018-May-20 01:53N 01°15' E 103°56'0 0.0
2018-May-20 01:27N 01°15' E 103°56'0 0.0
2018-May-20 01:00N 01°15' E 103°56'0 0.0
2018-May-20 00:29N 01°15' E 103°56'0 0.1
2018-May-19 23:53N 01°15' E 103°56'0 0.0
2018-May-19 23:27N 01°15' E 103°56'0 0.0
2018-May-19 22:56N 01°15' E 103°56'0 0.0
2018-May-19 22:30N 01°15' E 103°56'0 0.0
2018-May-19 22:00N 01°15' E 103°56'0 0.0
2018-May-19 21:23N 01°15' E 103°56'0 0.2
2018-May-19 21:00N 01°15' E 103°56'0 0.1
2018-May-19 20:27N 01°15' E 103°56'0 0.0
2018-May-19 19:56N 01°15' E 103°56'0 0.0
2018-May-19 19:30N 01°15' E 103°56'0 0.2
2018-May-19 18:59N 01°15' E 103°56'0 0.4
2018-May-19 18:30N 01°15' E 103°56'0 0.1
2018-May-19 17:59N 01°15' E 103°56'0 0.0
2018-May-19 17:30N 01°15' E 103°56'0 0.0
2018-May-19 17:00N 01°15' E 103°56'0 0.0
2018-May-19 16:24N 01°15' E 103°56'0 0.1
2018-May-19 15:54N 01°15' E 103°56'1 1.4
2018-May-19 15:30N 01°15' E 103°56'1 2.9
2018-May-19 15:00N 01°16' E 103°58'2 3.4
2018-May-19 14:30N 01°15' E 103°59'3 5.2
2018-May-19 14:00N 01°13' E 103°57'4 7.2
2018-May-19 13:30N 01°12' E 103°53'3 5.8
2018-May-19 13:01N 01°11' E 103°51'3 6.8
2018-May-19 12:30N 01°09' E 103°48'3 5.4
2018-May-19 12:00N 01°08' E 103°46'2 4.7
2018-May-19 11:30N 01°06' E 103°44'5 9.2
2018-May-19 11:00N 01°04' E 103°40'713.7
2018-May-19 10:30N 01°05' E 103°33'714.0
2018-May-19 09:59N 01°09' E 103°27'714.9
2018-May-19 09:30N 01°14' E 103°21'714.3
2018-May-19 09:00N 01°18' E 103°16'  
Track history (hours):
 
Tides and Currents Weather Stations Pressure Air Temp Water Temp Dewpoint Dewpoint Depression Visibility Wind Speed Wind Dir Waves Ship Positions

Ast Sunshine

Last reported at 2018-May-20 11:30 UTC. Time now 2018-May-20 11:47 UTC.
Position N 01°15' E 103°56'.

Length 274 m; draft 8.9 m.

Type: Tanker. MMSI: 356923000.

Date/timePositionNaut miles runAvg speedWind from/ knotsBaromVisibWave heightAir tempDewpointWater temp
2018-May-20 11:30N 01°15' E 103°56'0 0.0
2018-May-20 11:00N 01°15' E 103°56'0 0.1
2018-May-20 10:24N 01°15' E 103°56'0 0.1
2018-May-20 09:57N 01°15' E 103°56'0 0.2
2018-May-20 09:30N 01°15' E 103°56'0 0.2
2018-May-20 08:59N 01°15' E 103°56'0 0.2
2018-May-20 08:30N 01°15' E 103°56'0 0.1
2018-May-20 07:50N 01°15' E 103°56'0 0.0
2018-May-20 07:29N 01°15' E 103°56'0 0.1
2018-May-20 07:00N 01°15' E 103°56'0 0.1
2018-May-20 06:29N 01°15' E 103°56'0 0.0
2018-May-20 05:53N 01°15' E 103°56'0 0.2
2018-May-20 05:30N 01°15' E 103°56'0 0.1
2018-May-20 04:51N 01°15' E 103°56'0 0.0
2018-May-20 04:30N 01°15' E 103°56'0 0.1
2018-May-20 03:51N 01°15' E 103°56'0 0.0
2018-May-20 03:26N 01°15' E 103°56'0 0.0
2018-May-20 03:00N 01°15' E 103°56'0 0.0
2018-May-20 02:27N 01°15' E 103°56'0 0.0
2018-May-20 01:53N 01°15' E 103°56'0 0.0
2018-May-20 01:27N 01°15' E 103°56'0 0.0
2018-May-20 01:00N 01°15' E 103°56'0 0.0
2018-May-20 00:29N 01°15' E 103°56'0 0.1
2018-May-19 23:53N 01°15' E 103°56'0 0.0
2018-May-19 23:27N 01°15' E 103°56'0 0.0
2018-May-19 22:56N 01°15' E 103°56'0 0.0
2018-May-19 22:30N 01°15' E 103°56'0 0.0
2018-May-19 22:00N 01°15' E 103°56'0 0.0
2018-May-19 21:23N 01°15' E 103°56'0 0.2
2018-May-19 21:00N 01°15' E 103°56'0 0.1
2018-May-19 20:27N 01°15' E 103°56'0 0.0
2018-May-19 19:56N 01°15' E 103°56'0 0.0
2018-May-19 19:30N 01°15' E 103°56'0 0.2
2018-May-19 18:59N 01°15' E 103°56'0 0.4
2018-May-19 18:30N 01°15' E 103°56'0 0.1
2018-May-19 17:59N 01°15' E 103°56'0 0.0
2018-May-19 17:30N 01°15' E 103°56'0 0.0
2018-May-19 17:00N 01°15' E 103°56'0 0.0
2018-May-19 16:24N 01°15' E 103°56'0 0.1
2018-May-19 15:54N 01°15' E 103°56'1 1.4
2018-May-19 15:30N 01°15' E 103°56'1 2.9
2018-May-19 15:00N 01°16' E 103°58'2 3.4
2018-May-19 14:30N 01°15' E 103°59'3 5.2
2018-May-19 14:00N 01°13' E 103°57'4 7.2
2018-May-19 13:30N 01°12' E 103°53'3 5.8
2018-May-19 13:01N 01°11' E 103°51'3 6.8
2018-May-19 12:30N 01°09' E 103°48'3 5.4
2018-May-19 12:00N 01°08' E 103°46'2 4.7
2018-May-19 11:30N 01°06' E 103°44'5 9.2
2018-May-19 11:00N 01°04' E 103°40'713.7
2018-May-19 10:30N 01°05' E 103°33'714.0
2018-May-19 09:59N 01°09' E 103°27'714.9
2018-May-19 09:30N 01°14' E 103°21'714.3
2018-May-19 09:00N 01°18' E 103°16'  

Dump ship's entire track history